Time;durP1;ratioP1;P1;durP2;ratioP2;P2;SDS_P1;SDS_P2;PMS_P1;PMS_P2;Temp;Humidity;BMP_temperature;BMP_pressure;BME280_temperature;BME280_humidity;BME280_pressure;Samples;Min_cycle;Max_cycle;Signal;HPM_P1;HPM_P2
2022/09/09 00:01:26;;;;;;;4.85;3.72;;;;;;;;;;4992386;28;20038;-64
2022/09/09 00:04:02;;;;;;;5.63;4.40;;;;;;;;;;4992411;28;20033;-64
2022/09/09 00:06:36;;;;;;;4.32;3.60;;;;;;;;;;4975941;28;20480;-64
2022/09/09 00:09:12;;;;;;;5.43;3.70;;;;;;;;;;4992077;28;20042;-65
2022/09/09 00:11:43;;;;;;;4.28;3.83;;;;;;;;;;5014798;28;20516;-65
2022/09/09 00:14:35;;;;;;;3.97;3.40;;;;;;;;;;5033582;28;20375;-65
2022/09/09 00:17:18;;;;;;;6.20;4.30;;;;;;;;;;5026218;28;20044;-65
2022/09/09 00:20:06;;;;;;;5.00;4.05;;;;;;;;;;5033692;28;20076;-65
2022/09/09 00:22:32;;;;;;;6.03;4.32;;;;;;;;;;5033071;28;20142;-65
2022/09/09 00:25:23;;;;;;;4.90;3.90;;;;;;;;;;5033437;28;20090;-64
2022/09/09 00:27:50;;;;;;;4.82;4.03;;;;;;;;;;5033510;28;20120;-64
2022/09/09 00:30:22;;;;;;;5.05;4.13;;;;;;;;;;5033530;28;20025;-65
2022/09/09 00:32:50;;;;;;;5.35;3.67;;;;;;;;;;5033387;28;20049;-64
2022/09/09 00:35:28;;;;;;;5.57;4.00;;;;;;;;;;5033414;28;20486;-64
2022/09/09 00:38:00;;;;;;;4.82;3.85;;;;;;;;;;5033224;28;20083;-65
2022/09/09 00:40:32;;;;;;;4.65;3.90;;;;;;;;;;5033272;28;20366;-64
2022/09/09 00:43:22;;;;;;;4.75;3.88;;;;;;;;;;5033305;28;20059;-64
2022/09/09 00:46:18;;;;;;;4.68;3.72;;;;;;;;;;5033255;28;20418;-65
2022/09/09 00:49:05;;;;;;;4.80;3.88;;;;;;;;;;5033158;28;20033;-64
2022/09/09 00:51:51;;;;;;;6.10;3.90;;;;;;;;;;5032893;28;20029;-64
2022/09/09 00:54:22;;;;;;;4.97;4.05;;;;;;;;;;5033146;28;20030;-64
2022/09/09 00:57:00;;;;;;;5.30;4.40;;;;;;;;;;5032871;28;20026;-65
2022/09/09 00:59:45;;;;;;;4.85;4.20;;;;;;;;;;5032982;28;20084;-64
2022/09/09 01:02:38;;;;;;;5.45;4.18;;;;;;;;;;5031706;28;20108;-65
2022/09/09 01:05:29;;;;;;;5.95;4.05;;;;;;;;;;5031486;28;20095;-62
2022/09/09 01:07:58;;;;;;;4.78;4.20;;;;;;;;;;5032970;28;20116;-64
2022/09/09 01:10:41;;;;;;;5.30;4.45;;;;;;;;;;5032802;28;20040;-64
2022/09/09 01:13:16;;;;;;;6.00;5.30;;;;;;;;;;5032788;28;20032;-64
2022/09/09 01:15:46;;;;;;;6.88;4.35;;;;;;;;;;5032760;28;20068;-67
2022/09/09 01:18:16;;;;;;;6.63;4.77;;;;;;;;;;5032786;28;20025;-64
2022/09/09 01:21:04;;;;;;;5.25;4.50;;;;;;;;;;5032627;28;20386;-64
2022/09/09 01:23:46;;;;;;;8.13;5.10;;;;;;;;;;5032783;28;20059;-64
2022/09/09 01:26:17;;;;;;;6.18;4.55;;;;;;;;;;5032260;28;20042;-64
2022/09/09 01:28:46;;;;;;;5.47;4.85;;;;;;;;;;5032858;28;20029;-62
2022/09/09 01:31:16;;;;;;;6.07;4.78;;;;;;;;;;5032680;28;20375;-63
2022/09/09 01:33:42;;;;;;;9.15;5.20;;;;;;;;;;5032617;28;20105;-64
2022/09/09 01:36:21;;;;;;;7.32;4.80;;;;;;;;;;5032250;28;20068;-65
2022/09/09 01:38:46;;;;;;;7.65;5.10;;;;;;;;;;5032564;28;20053;-64
2022/09/09 01:41:12;;;;;;;6.65;4.93;;;;;;;;;;5032602;28;20064;-64
2022/09/09 01:43:37;;;;;;;6.47;5.10;;;;;;;;;;5032505;28;20497;-64
2022/09/09 01:46:03;;;;;;;6.13;5.50;;;;;;;;;;5032527;28;20052;-64
2022/09/09 01:48:31;;;;;;;8.15;5.63;;;;;;;;;;5032171;28;20091;-67
2022/09/09 01:50:56;;;;;;;8.20;5.60;;;;;;;;;;5032519;28;20025;-66
2022/09/09 01:53:22;;;;;;;7.60;6.80;;;;;;;;;;5032488;28;20139;-65
2022/09/09 01:56:19;;;;;;;13.77;7.43;;;;;;;;;;5032359;28;20029;-65
2022/09/09 01:58:57;;;;;;;8.18;7.15;;;;;;;;;;5032430;28;20060;-64
2022/09/09 02:01:41;;;;;;;8.55;7.00;;;;;;;;;;5032423;28;20057;-65
2022/09/09 02:04:33;;;;;;;9.82;7.10;;;;;;;;;;5032121;28;20032;-64
2022/09/09 02:07:00;;;;;;;11.40;7.70;;;;;;;;;;5031872;28;20433;-64
2022/09/09 02:09:26;;;;;;;8.75;7.35;;;;;;;;;;5035997;28;20112;-64
2022/09/09 02:12:14;;;;;;;8.65;7.13;;;;;;;;;;5036053;28;20025;-65
2022/09/09 02:14:46;;;;;;;9.95;8.35;;;;;;;;;;5036088;28;20036;-64
2022/09/09 02:17:16;;;;;;;9.57;8.20;;;;;;;;;;5036005;28;20395;-64
2022/09/09 02:19:49;;;;;;;8.63;7.35;;;;;;;;;;5035822;28;20029;-64
2022/09/09 02:22:19;;;;;;;10.63;8.05;;;;;;;;;;5035877;28;20463;-64
2022/09/09 02:24:46;;;;;;;;;;;;;;;;;;5036374;28;20095;-63
2022/09/09 02:27:13;;;;;;;10.65;7.63;;;;;;;;;;5035401;28;19917;-63
2022/09/09 02:29:41;;;;;;;11.90;8.63;;;;;;;;;;5034555;28;20079;-63
2022/09/09 02:32:11;;;;;;;9.65;8.23;;;;;;;;;;5035534;28;20029;-62
2022/09/09 02:34:39;;;;;;;;;;;;;;;;;;5036147;28;20036;-63
2022/09/09 02:37:07;;;;;;;12.63;7.80;;;;;;;;;;5035450;28;19960;-63
2022/09/09 02:39:33;;;;;;;11.02;8.20;;;;;;;;;;5035592;28;20028;-62
2022/09/09 02:41:59;;;;;;;10.18;7.78;;;;;;;;;;5035534;28;20092;-63
2022/09/09 02:44:25;;;;;;;10.18;8.15;;;;;;;;;;5035491;28;20382;-62
2022/09/09 02:47:23;;;;;;;9.70;8.13;;;;;;;;;;5035107;28;20175;-63
2022/09/09 02:49:57;;;;;;;10.95;8.13;;;;;;;;;;5031305;28;20042;-63
2022/09/09 02:52:41;;;;;;;9.30;7.78;;;;;;;;;;5035322;28;20022;-63
2022/09/09 02:55:31;;;;;;;10.35;7.82;;;;;;;;;;5035222;28;20032;-64
2022/09/09 02:57:58;;;;;;;8.68;7.47;;;;;;;;;;5013270;28;20487;-64
2022/09/09 03:00:27;;;;;;;8.43;7.18;;;;;;;;;;5013254;28;20077;-63
2022/09/09 03:02:54;;;;;;;9.40;8.13;;;;;;;;;;5013014;28;20034;-63
2022/09/09 03:05:20;;;;;;;18.52;12.10;;;;;;;;;;5013360;28;20514;-62
2022/09/09 03:07:46;;;;;;;10.93;8.18;;;;;;;;;;5013287;28;20033;-63
2022/09/09 03:10:11;;;;;;;12.35;8.07;;;;;;;;;;5013182;28;20392;-64
2022/09/09 03:12:38;;;;;;;9.52;7.75;;;;;;;;;;5013250;28;20026;-63
2022/09/09 03:15:04;;;;;;;10.68;8.65;;;;;;;;;;5013015;28;20088;-62
2022/09/09 03:17:30;;;;;;;9.80;7.90;;;;;;;;;;5012784;28;20030;-63
2022/09/09 03:19:58;;;;;;;10.20;8.82;;;;;;;;;;5011720;28;20029;-62
2022/09/09 03:22:25;;;;;;;11.30;8.63;;;;;;;;;;5012773;28;20604;-63
2022/09/09 03:24:51;;;;;;;10.45;8.52;;;;;;;;;;5012754;28;20030;-63
2022/09/09 03:27:17;;;;;;;11.20;8.80;;;;;;;;;;5012428;28;20522;-62
2022/09/09 03:29:42;;;;;;;11.65;9.00;;;;;;;;;;5012761;28;20038;-63
2022/09/09 03:32:10;;;;;;;10.95;8.85;;;;;;;;;;5012564;28;20030;-63
2022/09/09 03:34:38;;;;;;;12.43;8.75;;;;;;;;;;5019969;28;20096;-64
2022/09/09 03:37:04;;;;;;;11.35;9.63;;;;;;;;;;5034468;28;20049;-63
2022/09/09 03:39:30;;;;;;;13.20;9.00;;;;;;;;;;5034480;28;20025;-62
2022/09/09 03:41:55;;;;;;;13.70;9.32;;;;;;;;;;5033169;28;20433;-66
2022/09/09 03:44:21;;;;;;;11.45;10.25;;;;;;;;;;5034436;28;20060;-63
2022/09/09 03:46:46;;;;;;;12.82;9.73;;;;;;;;;;5033807;28;20032;-63
2022/09/09 03:49:12;;;;;;;13.98;10.45;;;;;;;;;;5034392;28;20026;-63
2022/09/09 03:51:38;;;;;;;13.77;10.60;;;;;;;;;;5034191;28;20029;-62
2022/09/09 03:54:05;;;;;;;14.45;11.18;;;;;;;;;;5034110;28;20065;-63
2022/09/09 03:56:31;;;;;;;13.48;11.43;;;;;;;;;;5034126;28;20162;-63
2022/09/09 03:58:57;;;;;;;17.02;12.10;;;;;;;;;;5033923;28;20021;-62
2022/09/09 04:01:23;;;;;;;14.77;11.55;;;;;;;;;;5024247;28;20037;-63
2022/09/09 04:03:48;;;;;;;15.68;12.02;;;;;;;;;;5023272;28;20029;-63
2022/09/09 04:06:14;;;;;;;15.40;11.90;;;;;;;;;;5029505;28;20398;-62
2022/09/09 04:08:41;;;;;;;16.63;12.57;;;;;;;;;;5030396;28;20026;-64
2022/09/09 04:11:07;;;;;;;17.60;12.88;;;;;;;;;;5029568;28;20030;-62
2022/09/09 04:13:38;;;;;;;14.60;12.35;;;;;;;;;;5029991;28;20037;-63
2022/09/09 04:16:04;;;;;;;16.95;13.43;;;;;;;;;;5030371;28;20025;-62
2022/09/09 04:18:30;;;;;;;18.42;13.82;;;;;;;;;;5029592;28;20061;-63
2022/09/09 04:20:57;;;;;;;17.92;13.77;;;;;;;;;;5030440;28;20394;-63
2022/09/09 04:23:24;;;;;;;16.05;12.45;;;;;;;;;;5029533;28;20025;-63
2022/09/09 04:25:54;;;;;;;15.30;12.48;;;;;;;;;;5030291;28;20049;-63
2022/09/09 04:28:21;;;;;;;18.80;14.32;;;;;;;;;;5028334;28;20045;-66
2022/09/09 04:30:47;;;;;;;16.65;13.70;;;;;;;;;;5030139;28;20033;-63
2022/09/09 04:33:13;;;;;;;20.63;13.75;;;;;;;;;;5029126;28;20548;-63
2022/09/09 04:35:39;;;;;;;17.40;13.70;;;;;;;;;;5029339;28;20518;-63
2022/09/09 04:38:07;;;;;;;18.35;13.77;;;;;;;;;;5029599;28;20033;-62
2022/09/09 04:40:33;;;;;;;20.27;13.85;;;;;;;;;;5028756;28;20048;-63
2022/09/09 04:42:59;;;;;;;19.75;13.90;;;;;;;;;;5029387;28;20080;-62
2022/09/09 04:45:26;;;;;;;17.38;13.65;;;;;;;;;;5029321;28;20075;-64
2022/09/09 04:47:52;;;;;;;17.75;13.60;;;;;;;;;;5028818;28;20368;-62
2022/09/09 04:50:18;;;;;;;20.02;14.45;;;;;;;;;;5029782;28;20029;-62
2022/09/09 04:52:44;;;;;;;23.30;14.48;;;;;;;;;;5030149;28;20037;-63
2022/09/09 04:55:10;;;;;;;22.55;15.13;;;;;;;;;;5028502;28;20028;-62
2022/09/09 04:57:35;;;;;;;18.83;14.40;;;;;;;;;;5029579;28;20498;-62
2022/09/09 05:00:03;;;;;;;20.65;15.07;;;;;;;;;;5029629;28;20026;-63
2022/09/09 05:02:30;;;;;;;20.95;14.00;;;;;;;;;;5028175;28;20029;-63
2022/09/09 05:04:55;;;;;;;19.98;13.50;;;;;;;;;;5028858;28;20577;-63
2022/09/09 05:07:21;;;;;;;18.60;14.27;;;;;;;;;;5028084;28;20112;-63
2022/09/09 05:09:49;;;;;;;17.73;14.02;;;;;;;;;;5029491;28;20057;-63
2022/09/09 05:12:16;;;;;;;16.65;13.05;;;;;;;;;;5029659;28;20025;-63
2022/09/09 05:14:42;;;;;;;18.50;12.77;;;;;;;;;;5027666;28;20236;-63
2022/09/09 05:17:08;;;;;;;18.17;13.10;;;;;;;;;;5028813;28;20083;-63
2022/09/09 05:19:33;;;;;;;19.90;13.02;;;;;;;;;;5029369;28;20133;-63
2022/09/09 05:22:00;;;;;;;18.13;13.85;;;;;;;;;;5029298;28;20152;-63
2022/09/09 05:24:25;;;;;;;18.83;14.55;;;;;;;;;;5028862;28;20037;-63
2022/09/09 05:26:51;;;;;;;19.35;15.55;;;;;;;;;;5028587;28;20045;-63
2022/09/09 05:29:19;;;;;;;20.13;14.68;;;;;;;;;;5029181;28;20032;-63
2022/09/09 05:31:45;;;;;;;20.38;15.45;;;;;;;;;;5027995;28;20041;-62
2022/09/09 05:34:11;;;;;;;19.20;14.10;;;;;;;;;;5029326;28;20022;-63
2022/09/09 05:36:37;;;;;;;20.58;14.63;;;;;;;;;;5028844;28;20049;-62
2022/09/09 05:39:03;;;;;;;17.95;13.70;;;;;;;;;;5029426;28;20383;-63
2022/09/09 05:41:29;;;;;;;22.50;15.70;;;;;;;;;;5028726;28;20037;-63
2022/09/09 05:43:54;;;;;;;21.60;15.52;;;;;;;;;;5029718;28;20026;-63
2022/09/09 05:46:22;;;;;;;26.45;17.13;;;;;;;;;;5033074;28;20096;-63
2022/09/09 05:48:52;;;;;;;26.33;17.42;;;;;;;;;;5032183;28;20491;-63
2022/09/09 05:51:18;;;;;;;;;;;;;;;;;;5032873;28;20025;-63
2022/09/09 05:53:45;;;;;;;29.00;17.67;;;;;;;;;;5033574;28;19920;-62
2022/09/09 05:56:17;;;;;;;28.90;18.35;;;;;;;;;;5032014;28;20555;-63
2022/09/09 05:58:43;;;;;;;30.65;20.27;;;;;;;;;;5031788;28;20116;-62
2022/09/09 06:01:27;;;;;;;33.45;20.48;;;;;;;;;;5031774;28;20017;-63
2022/09/09 06:03:53;;;;;;;28.17;18.48;;;;;;;;;;5032441;28;20483;-62
2022/09/09 06:06:24;;;;;;;33.08;19.55;;;;;;;;;;5032047;28;20053;-64
2022/09/09 06:08:54;;;;;;;32.45;19.67;;;;;;;;;;5033297;28;20041;-64
2022/09/09 06:11:21;;;;;;;;;;;;;;;;;;5033097;28;20022;-63
2022/09/09 06:13:47;;;;;;;29.73;19.08;;;;;;;;;;5032309;28;19917;-63
2022/09/09 06:16:16;;;;;;;26.70;18.05;;;;;;;;;;5031992;28;20034;-62
2022/09/09 06:18:42;;;;;;;26.85;17.40;;;;;;;;;;5031815;28;20025;-62
2022/09/09 06:21:19;;;;;;;28.73;17.88;;;;;;;;;;5031480;28;20467;-62
2022/09/09 06:23:46;;;;;;;23.10;14.75;;;;;;;;;;5032878;28;20709;-63
2022/09/09 06:26:12;;;;;;;27.20;15.88;;;;;;;;;;5031908;28;20083;-63
2022/09/09 06:28:38;;;;;;;25.30;15.18;;;;;;;;;;5032374;28;20499;-63
2022/09/09 06:31:07;;;;;;;26.92;16.65;;;;;;;;;;5032752;28;20048;-63
2022/09/09 06:33:40;;;;;;;25.85;14.40;;;;;;;;;;5031179;28;20021;-62
2022/09/09 06:36:10;;;;;;;23.77;14.02;;;;;;;;;;5031905;28;20021;-62
2022/09/09 06:38:36;;;;;;;25.83;14.15;;;;;;;;;;5031651;28;20052;-63
2022/09/09 06:41:02;;;;;;;21.52;14.00;;;;;;;;;;5031838;28;20029;-62
2022/09/09 06:43:28;;;;;;;24.83;14.50;;;;;;;;;;5032169;28;20026;-63
2022/09/09 06:46:00;;;;;;;27.33;14.65;;;;;;;;;;5032384;28;20041;-64
2022/09/09 06:48:27;;;;;;;26.60;14.77;;;;;;;;;;5031644;28;20037;-62
2022/09/09 06:51:11;;;;;;;24.88;13.18;;;;;;;;;;5031465;28;20025;-63
2022/09/09 06:53:38;;;;;;;26.50;14.90;;;;;;;;;;5031869;28;20536;-62
2022/09/09 06:56:09;;;;;;;25.33;14.02;;;;;;;;;;5032488;28;20422;-63
2022/09/09 06:58:36;;;;;;;26.95;13.95;;;;;;;;;;5032041;28;20056;-64
2022/09/09 07:01:05;;;;;;;19.02;11.93;;;;;;;;;;5031457;28;20039;-63
2022/09/09 07:03:31;;;;;;;31.40;15.88;;;;;;;;;;5028532;28;20030;-63
2022/09/09 07:05:57;;;;;;;22.55;13.40;;;;;;;;;;5031492;28;20029;-62
2022/09/09 07:08:24;;;;;;;22.20;12.75;;;;;;;;;;5031310;28;20039;-62
2022/09/09 07:10:53;;;;;;;36.60;14.40;;;;;;;;;;5030634;28;20027;-64
2022/09/09 07:13:26;;;;;;;24.58;14.00;;;;;;;;;;5030900;28;20029;-66
2022/09/09 07:15:52;;;;;;;25.10;13.82;;;;;;;;;;5031251;28;20542;-64
2022/09/09 07:18:18;;;;;;;20.95;12.65;;;;;;;;;;5031392;28;20390;-63
2022/09/09 07:20:54;;;;;;;24.63;13.32;;;;;;;;;;5030421;28;20124;-62
2022/09/09 07:23:19;;;;;;;21.05;13.35;;;;;;;;;;5030708;28;20021;-63
2022/09/09 07:25:45;;;;;;;19.27;13.18;;;;;;;;;;5030951;28;20064;-63
2022/09/09 07:28:11;;;;;;;20.10;13.80;;;;;;;;;;5030066;28;20025;-62
2022/09/09 07:30:36;;;;;;;19.45;12.25;;;;;;;;;;5031201;28;20038;-64
2022/09/09 07:33:03;;;;;;;21.25;13.35;;;;;;;;;;5031194;28;20026;-62
2022/09/09 07:35:28;;;;;;;18.50;12.10;;;;;;;;;;5029739;28;20028;-63
2022/09/09 07:37:54;;;;;;;25.83;12.80;;;;;;;;;;5030209;28;20049;-68
2022/09/09 07:40:21;;;;;;;17.60;9.68;;;;;;;;;;5028773;28;20036;-63
2022/09/09 07:42:47;;;;;;;18.13;13.00;;;;;;;;;;5030701;28;20032;-62
2022/09/09 07:45:14;;;;;;;17.50;12.15;;;;;;;;;;5029838;28;20042;-62
2022/09/09 07:47:42;;;;;;;25.13;14.10;;;;;;;;;;5030180;28;20033;-62
2022/09/09 07:50:09;;;;;;;16.50;11.90;;;;;;;;;;5031192;28;20057;-62
2022/09/09 07:52:35;;;;;;;22.08;12.77;;;;;;;;;;5029612;28;20032;-62
2022/09/09 07:55:02;;;;;;;15.43;12.10;;;;;;;;;;5030740;28;20038;-63
2022/09/09 07:57:30;;;;;;;17.48;13.02;;;;;;;;;;5030559;28;20087;-62
2022/09/09 07:59:56;;;;;;;17.05;11.35;;;;;;;;;;5030340;28;20491;-64
2022/09/09 08:02:23;;;;;;;13.05;10.35;;;;;;;;;;5030315;28;20034;-64
2022/09/09 08:04:48;;;;;;;15.55;11.60;;;;;;;;;;5030489;28;20034;-65
2022/09/09 08:07:14;;;;;;;15.60;11.75;;;;;;;;;;5029607;28;20038;-64
2022/09/09 08:09:39;;;;;;;15.02;11.90;;;;;;;;;;5030117;28;20083;-63
2022/09/09 08:12:08;;;;;;;15.30;11.68;;;;;;;;;;5030987;28;20025;-64
2022/09/09 08:14:33;;;;;;;18.35;12.73;;;;;;;;;;5028497;28;20272;-63
2022/09/09 08:16:59;;;;;;;16.40;11.77;;;;;;;;;;5030383;28;20028;-62
2022/09/09 08:19:24;;;;;;;21.15;12.48;;;;;;;;;;5030048;28;20546;-63
2022/09/09 08:21:50;;;;;;;16.20;11.68;;;;;;;;;;5029735;28;20112;-67
2022/09/09 08:24:16;;;;;;;14.35;10.30;;;;;;;;;;5029876;28;20025;-63
2022/09/09 08:26:44;;;;;;;13.88;10.00;;;;;;;;;;5029638;28;20091;-62
2022/09/09 08:29:11;;;;;;;18.90;11.43;;;;;;;;;;5029983;28;20071;-61
2022/09/09 08:31:39;;;;;;;17.67;11.40;;;;;;;;;;5029115;28;20032;-62
2022/09/09 08:34:06;;;;;;;11.43;9.45;;;;;;;;;;5029713;28;20033;-61
2022/09/09 08:36:34;;;;;;;11.45;9.10;;;;;;;;;;5030032;28;20026;-63
2022/09/09 08:39:00;;;;;;;13.23;9.85;;;;;;;;;;5030555;28;20029;-62
2022/09/09 08:41:45;;;;;;;12.38;10.57;;;;;;;;;;5029558;28;20164;-65
2022/09/09 08:44:48;;;;;;;11.70;9.60;;;;;;;;;;5030151;28;20049;-62
2022/09/09 08:47:16;;;;;;;13.43;7.93;;;;;;;;;;5029015;28;20037;-63
2022/09/09 08:50:08;;;;;;;8.73;7.82;;;;;;;;;;5029236;28;20080;-62
2022/09/09 08:52:52;;;;;;;9.77;8.05;;;;;;;;;;5029704;28;20060;-62
2022/09/09 08:55:23;;;;;;;8.63;7.70;;;;;;;;;;5029139;28;20021;-62
2022/09/09 08:57:52;;;;;;;6.97;5.97;;;;;;;;;;5028942;28;20083;-62
2022/09/09 09:00:18;;;;;;;7.22;6.38;;;;;;;;;;5027089;28;20474;-62
2022/09/09 09:02:59;;;;;;;7.70;6.63;;;;;;;;;;5028511;28;20025;-62
2022/09/09 09:05:31;;;;;;;6.70;5.82;;;;;;;;;;5028778;28;20406;-62
2022/09/09 09:08:22;;;;;;;7.05;5.47;;;;;;;;;;5030076;28;20033;-62
2022/09/09 09:10:50;;;;;;;7.05;5.30;;;;;;;;;;5029548;28;20037;-62
2022/09/09 09:13:57;;;;;;;6.18;5.57;;;;;;;;;;5028208;28;20025;-63
2022/09/09 09:17:00;;;;;;;7.97;5.35;;;;;;;;;;4986202;28;20030;-62
2022/09/09 09:19:28;;;;;;;5.70;4.50;;;;;;;;;;4986503;28;20553;-62
2022/09/09 09:21:59;;;;;;;5.65;4.45;;;;;;;;;;4987033;28;20134;-63
2022/09/09 09:24:42;;;;;;;5.72;4.35;;;;;;;;;;4986823;28;20042;-62
2022/09/09 09:27:35;;;;;;;8.80;4.25;;;;;;;;;;4985792;28;20510;-62
2022/09/09 09:30:13;;;;;;;6.93;3.58;;;;;;;;;;4977058;28;20519;-62
2022/09/09 09:32:43;;;;;;;5.00;3.78;;;;;;;;;;4986677;28;20034;-62
2022/09/09 09:35:13;;;;;;;4.38;3.88;;;;;;;;;;4987196;28;20534;-63
2022/09/09 09:37:41;;;;;;;5.28;3.60;;;;;;;;;;4987240;28;20038;-62
2022/09/09 09:40:14;;;;;;;5.63;3.47;;;;;;;;;;4986954;28;20053;-62
2022/09/09 09:42:53;;;;;;;5.28;3.50;;;;;;;;;;4986528;28;20053;-62
2022/09/09 09:45:37;;;;;;;4.80;3.90;;;;;;;;;;4985411;28;20026;-63
2022/09/09 09:48:06;;;;;;;5.65;4.03;;;;;;;;;;4987165;28;20300;-62
2022/09/09 09:50:32;;;;;;;4.82;3.35;;;;;;;;;;4985095;28;20038;-62
2022/09/09 09:53:23;;;;;;;4.57;3.30;;;;;;;;;;5008765;28;20045;-62
2022/09/09 09:56:10;;;;;;;4.53;3.10;;;;;;;;;;5028982;28;20037;-63
2022/09/09 09:58:50;;;;;;;5.28;3.20;;;;;;;;;;5028297;28;20029;-63
2022/09/09 10:01:25;;;;;;;4.32;2.85;;;;;;;;;;5028575;28;20028;-63
2022/09/09 10:03:57;;;;;;;4.15;2.95;;;;;;;;;;5027628;28;20139;-62
2022/09/09 10:06:33;;;;;;;4.53;2.97;;;;;;;;;;5028864;28;20025;-62
2022/09/09 10:09:01;;;;;;;5.22;3.17;;;;;;;;;;5028512;28;20394;-62
2022/09/09 10:11:52;;;;;;;3.55;2.97;;;;;;;;;;5027962;28;20037;-63
2022/09/09 10:14:27;;;;;;;5.25;2.50;;;;;;;;;;5026824;28;20080;-63
2022/09/09 10:17:14;;;;;;;11.13;3.03;;;;;;;;;;5028412;28;20061;-62
2022/09/09 10:19:48;;;;;;;3.17;2.38;;;;;;;;;;5026847;28;20057;-63
2022/09/09 10:22:33;;;;;;;3.50;2.45;;;;;;;;;;5029091;28;20498;-65
2022/09/09 10:25:14;;;;;;;4.00;2.88;;;;;;;;;;5028581;28;20495;-62
2022/09/09 10:28:01;;;;;;;5.05;2.67;;;;;;;;;;5027762;28;20041;-63
2022/09/09 10:30:53;;;;;;;4.05;2.58;;;;;;;;;;5031955;28;20162;-61
2022/09/09 10:33:23;;;;;;;3.67;3.00;;;;;;;;;;5031917;28;20026;-62
2022/09/09 10:36:10;;;;;;;4.88;2.85;;;;;;;;;;5032110;28;20025;-62
2022/09/09 10:38:45;;;;;;;4.38;2.88;;;;;;;;;;5030237;28;20037;-62
2022/09/09 10:41:19;;;;;;;8.57;3.03;;;;;;;;;;5032395;28;20034;-62
2022/09/09 10:44:13;;;;;;;4.15;2.85;;;;;;;;;;5032485;28;20055;-62
2022/09/09 10:47:02;;;;;;;4.20;2.67;;;;;;;;;;5030525;28;20021;-64
2022/09/09 10:49:56;;;;;;;4.97;2.60;;;;;;;;;;5025390;28;20053;-62
2022/09/09 10:52:40;;;;;;;4.45;2.72;;;;;;;;;;5032349;28;20360;-62
2022/09/09 10:55:19;;;;;;;5.55;3.03;;;;;;;;;;5032361;28;20032;-62
2022/09/09 10:57:53;;;;;;;6.80;2.50;;;;;;;;;;5067868;22;20018;-62
2022/09/09 11:00:23;;;;;;;4.68;2.50;;;;;;;;;;5030318;28;20267;-63
2022/09/09 11:02:56;;;;;;;5.55;2.80;;;;;;;;;;5032125;28;20487;-62
2022/09/09 11:05:28;;;;;;;3.88;2.83;;;;;;;;;;5030839;28;20071;-61
2022/09/09 11:08:06;;;;;;;3.75;2.47;;;;;;;;;;5030926;28;20043;-62
2022/09/09 11:10:52;;;;;;;4.00;2.47;;;;;;;;;;5030651;28;20029;-62
2022/09/09 11:13:43;;;;;;;5.78;2.85;;;;;;;;;;5031177;28;20360;-62
2022/09/09 11:16:33;;;;;;;5.78;3.00;;;;;;;;;;5030296;28;20079;-62
2022/09/09 11:19:21;;;;;;;5.88;2.38;;;;;;;;;;5030908;28;20435;-63
2022/09/09 11:21:49;;;;;;;3.30;2.22;;;;;;;;;;5031097;28;20121;-62
2022/09/09 11:24:14;;;;;;;3.78;2.40;;;;;;;;;;5031413;28;20021;-62
2022/09/09 11:27:02;;;;;;;3.47;2.50;;;;;;;;;;5031119;28;20026;-62
2022/09/09 11:29:47;;;;;;;4.13;2.70;;;;;;;;;;5030086;28;20027;-62
2022/09/09 11:32:21;;;;;;;6.20;2.55;;;;;;;;;;5037062;28;20036;-61
2022/09/09 11:34:50;;;;;;;5.75;2.60;;;;;;;;;;5037946;28;20025;-62
2022/09/09 11:37:38;;;;;;;3.75;2.10;;;;;;;;;;5036258;28;20026;-62
2022/09/09 11:40:23;;;;;;;3.75;2.20;;;;;;;;;;5033262;28;20025;-63
2022/09/09 11:42:51;;;;;;;3.53;1.83;;;;;;;;;;5048317;28;20418;-62
2022/09/09 11:45:27;;;;;;;7.85;2.05;;;;;;;;;;5043810;28;20026;-65
2022/09/09 11:48:03;;;;;;;5.07;1.80;;;;;;;;;;5029950;28;20440;-63
2022/09/09 11:50:32;;;;;;;2.33;1.50;;;;;;;;;;5035867;28;20391;-64
2022/09/09 11:53:22;;;;;;;9.40;1.77;;;;;;;;;;5046542;28;20486;-68
2022/09/09 11:55:48;;;;;;;;;;;;;;;;;;5037272;28;20059;-62
2022/09/09 11:58:13;;;;;;;4.13;1.70;;;;;;;;;;5038870;28;19939;-64
2022/09/09 12:00:44;;;;;;;7.07;1.80;;;;;;;;;;5035552;28;20406;-63
2022/09/09 12:03:34;;;;;;;2.72;1.70;;;;;;;;;;5044291;28;20123;-62
2022/09/09 12:06:11;;;;;;;4.82;2.03;;;;;;;;;;5050905;28;20067;-62
2022/09/09 12:08:42;;;;;;;2.65;1.60;;;;;;;;;;5040821;28;20041;-63
2022/09/09 12:11:07;;;;;;;6.35;2.30;;;;;;;;;;5034345;28;20136;-62
2022/09/09 12:13:33;;;;;;;4.38;1.77;;;;;;;;;;5042481;28;20113;-63
2022/09/09 12:16:05;;;;;;;4.65;2.00;;;;;;;;;;5050908;28;20060;-63
2022/09/09 12:18:36;;;;;;;10.75;2.20;;;;;;;;;;5041717;28;20059;-62
2022/09/09 12:21:30;;;;;;;3.63;1.67;;;;;;;;;;5046321;28;20356;-62
2022/09/09 12:24:01;;;;;;;3.55;1.55;;;;;;;;;;5050692;28;20048;-64
2022/09/09 12:26:44;;;;;;;5.53;1.80;;;;;;;;;;5038481;28;20021;-64
2022/09/09 12:29:18;;;;;;;5.75;1.95;;;;;;;;;;5038602;28;20029;-62
2022/09/09 12:32:07;;;;;;;3.65;1.63;;;;;;;;;;5040176;28;20394;-64
2022/09/09 12:34:41;;;;;;;5.20;2.22;;;;;;;;;;5046406;28;20390;-66
2022/09/09 12:37:24;;;;;;;3.70;1.58;;;;;;;;;;5041071;28;20025;-63
2022/09/09 12:39:59;;;;;;;3.17;1.38;;;;;;;;;;5038716;28;20037;-63
2022/09/09 12:42:25;;;;;;;4.93;1.33;;;;;;;;;;5031236;28;20041;-63
2022/09/09 12:45:03;;;;;;;3.72;1.60;;;;;;;;;;5042331;28;20025;-63
2022/09/09 12:48:00;;;;;;;3.00;1.50;;;;;;;;;;5036691;28;20163;-64
2022/09/09 12:50:29;;;;;;;2.75;1.40;;;;;;;;;;5038229;28;20048;-63
2022/09/09 12:52:58;;;;;;;3.63;1.50;;;;;;;;;;5029455;28;20026;-63
2022/09/09 12:55:36;;;;;;;4.20;1.30;;;;;;;;;;5041686;28;20149;-63
2022/09/09 12:58:05;;;;;;;3.67;1.30;;;;;;;;;;5033705;28;20103;-68
2022/09/09 13:00:32;;;;;;;4.07;1.40;;;;;;;;;;5027753;28;20036;-64
2022/09/09 13:03:00;;;;;;;4.85;1.30;;;;;;;;;;5037598;28;20036;-64
2022/09/09 13:05:27;;;;;;;2.50;1.42;;;;;;;;;;5039573;28;20075;-66
2022/09/09 13:08:04;;;;;;;3.55;1.25;;;;;;;;;;5038930;28;20162;-63
2022/09/09 13:11:03;;;;;;;3.50;1.13;;;;;;;;;;5043172;28;20025;-65
2022/09/09 13:13:36;;;;;;;2.45;1.10;;;;;;;;;;5034252;28;20037;-62
2022/09/09 13:16:04;;;;;;;4.65;1.20;;;;;;;;;;5049601;28;20488;-62
2022/09/09 13:18:33;;;;;;;5.97;2.00;;;;;;;;;;5038078;28;20489;-62
2022/09/09 13:20:59;;;;;;;4.63;1.33;;;;;;;;;;5042166;28;20029;-63
2022/09/09 13:23:30;;;;;;;2.83;1.15;;;;;;;;;;5044897;28;20040;-63
2022/09/09 13:26:05;;;;;;;7.78;1.20;;;;;;;;;;5029468;28;20048;-64
2022/09/09 13:28:31;;;;;;;8.90;1.52;;;;;;;;;;5034201;28;20044;-65
2022/09/09 13:31:00;;;;;;;3.28;1.27;;;;;;;;;;5029543;28;20029;-64
2022/09/09 13:33:31;;;;;;;5.43;1.25;;;;;;;;;;5037725;28;20443;-62
2022/09/09 13:36:02;;;;;;;4.55;1.33;;;;;;;;;;5048900;28;20036;-62
2022/09/09 13:38:30;;;;;;;2.38;1.20;;;;;;;;;;5042550;28;20151;-67
2022/09/09 13:41:04;;;;;;;3.13;1.27;;;;;;;;;;5037987;28;20029;-64
2022/09/09 13:43:43;;;;;;;4.93;1.30;;;;;;;;;;5043854;28;20498;-61
2022/09/09 13:46:36;;;;;;;2.80;1.20;;;;;;;;;;5036385;28;20033;-62
2022/09/09 13:49:14;;;;;;;3.58;1.30;;;;;;;;;;5043188;28;20028;-62
2022/09/09 13:51:46;;;;;;;4.30;1.20;;;;;;;;;;5035602;28;20033;-63
2022/09/09 13:54:14;;;;;;;2.88;1.20;;;;;;;;;;5043983;28;20567;-63
2022/09/09 13:56:40;;;;;;;3.55;1.20;;;;;;;;;;5045920;28;20530;-63
2022/09/09 13:59:11;;;;;;;5.05;1.10;;;;;;;;;;5033447;28;20056;-62
2022/09/09 14:01:37;;;;;;;4.65;1.17;;;;;;;;;;5030511;28;20372;-63
2022/09/09 14:04:03;;;;;;;6.38;1.25;;;;;;;;;;5041908;28;20029;-63
2022/09/09 14:06:29;;;;;;;3.78;1.70;;;;;;;;;;5034263;28;20159;-63
2022/09/09 14:08:55;;;;;;;3.97;1.10;;;;;;;;;;5047383;28;20399;-63
2022/09/09 14:11:21;;;;;;;6.05;1.38;;;;;;;;;;5043985;28;20071;-64
2022/09/09 14:13:49;;;;;;;3.50;1.10;;;;;;;;;;5032674;28;20120;-63
2022/09/09 14:16:16;;;;;;;3.42;1.20;;;;;;;;;;5033778;28;20083;-63
2022/09/09 14:18:41;;;;;;;3.03;1.25;;;;;;;;;;5044293;28;20031;-63
2022/09/09 14:21:08;;;;;;;3.47;1.15;;;;;;;;;;5032099;28;21031;-63
2022/09/09 14:23:33;;;;;;;3.78;1.10;;;;;;;;;;5040535;28;20478;-63
2022/09/09 14:25:59;;;;;;;2.80;1.23;;;;;;;;;;5035405;28;20156;-63
2022/09/09 14:28:25;;;;;;;3.67;1.23;;;;;;;;;;5035271;28;20497;-63
2022/09/09 14:30:50;;;;;;;4.07;1.23;;;;;;;;;;5035342;28;20138;-62
2022/09/09 14:33:17;;;;;;;4.82;1.60;;;;;;;;;;5035473;28;20101;-62
2022/09/09 14:35:43;;;;;;;2.72;1.35;;;;;;;;;;5035020;28;20063;-64
2022/09/09 14:38:09;;;;;;;4.47;1.20;;;;;;;;;;5035123;28;20167;-64
2022/09/09 14:40:36;;;;;;;2.63;1.25;;;;;;;;;;5033973;28;20108;-65
2022/09/09 14:43:02;;;;;;;3.40;1.10;;;;;;;;;;5035012;28;20072;-63
2022/09/09 14:45:28;;;;;;;5.30;1.40;;;;;;;;;;5034947;28;20110;-63
2022/09/09 14:47:54;;;;;;;4.47;1.42;;;;;;;;;;5034808;28;20383;-63
2022/09/09 14:50:22;;;;;;;2.90;1.20;;;;;;;;;;5035084;28;20036;-64
2022/09/09 14:52:47;;;;;;;4.45;1.20;;;;;;;;;;5034812;28;20524;-64
2022/09/09 14:55:14;;;;;;;4.78;1.40;;;;;;;;;;5034947;28;20037;-64
2022/09/09 14:57:43;;;;;;;4.90;1.35;;;;;;;;;;5034425;28;20085;-64
2022/09/09 15:00:11;;;;;;;6.03;1.48;;;;;;;;;;5033575;28;20535;-63
2022/09/09 15:02:36;;;;;;;4.63;1.48;;;;;;;;;;5034488;28;20056;-63
2022/09/09 15:05:02;;;;;;;3.63;1.20;;;;;;;;;;5033825;28;20061;-64